Time;durP1;ratioP1;P1;durP2;ratioP2;P2;SDS_P1;SDS_P2;PMS_P1;PMS_P2;Temp;Humidity;BMP_temperature;BMP_pressure;BME280_temperature;BME280_humidity;BME280_pressure;Samples;Min_cycle;Max_cycle;Signal;HPM_P1;HPM_P2
2024/02/22 00:00:50;;;;;;;67.47;33.45;;;;;;;;;;4999927;28;20022;-79
2024/02/22 00:03:16;;;;;;;64.05;32.33;;;;;;;;;;5009409;28;20405;-79
2024/02/22 00:05:42;;;;;;;75.63;35.42;;;;;;;;;;5077383;28;20026;-81
2024/02/22 00:08:08;;;;;;;70.15;36.42;;;;;;;;;;5077146;28;20023;-79
2024/02/22 00:10:34;;;;;;;69.35;34.03;;;;;;;;;;5077014;28;20033;-80
2024/02/22 00:13:01;;;;;;;62.40;34.00;;;;;;;;;;5009643;28;20026;-81
2024/02/22 00:15:28;;;;;;;73.18;36.60;;;;;;;;;;5076955;28;20037;-80
2024/02/22 00:17:54;;;;;;;84.93;40.20;;;;;;;;;;5009592;28;20014;-79
2024/02/22 00:20:20;;;;;;;91.43;45.70;;;;;;;;;;5010477;28;20028;-80
2024/02/22 00:22:46;;;;;;;104.90;47.97;;;;;;;;;;5018121;28;20082;-80
2024/02/22 00:25:12;;;;;;;107.40;53.83;;;;;;;;;;5075206;28;20030;-80
2024/02/22 00:27:38;;;;;;;113.15;51.25;;;;;;;;;;5069790;28;20031;-79
2024/02/22 00:30:12;;;;;;;117.53;52.65;;;;;;;;;;5077395;28;20068;-79
2024/02/22 00:32:39;;;;;;;112.85;51.50;;;;;;;;;;5075962;28;20608;-80
2024/02/22 00:35:05;;;;;;;103.55;50.60;;;;;;;;;;5077487;28;20086;-79
2024/02/22 00:37:32;;;;;;;105.43;47.35;;;;;;;;;;5076992;28;20066;-80
2024/02/22 00:39:58;;;;;;;111.07;48.92;;;;;;;;;;5077371;28;20141;-81
2024/02/22 00:42:24;;;;;;;102.63;48.55;;;;;;;;;;5076834;28;20475;-80
2024/02/22 00:44:50;;;;;;;94.00;45.35;;;;;;;;;;5008694;28;20417;-79
2024/02/22 00:47:16;;;;;;;97.30;46.70;;;;;;;;;;5074743;28;20164;-82
2024/02/22 00:49:42;;;;;;;104.90;46.55;;;;;;;;;;5009509;28;20117;-78
2024/02/22 00:52:10;;;;;;;94.82;47.58;;;;;;;;;;5076470;28;20144;-82
2024/02/22 00:54:36;;;;;;;85.70;42.83;;;;;;;;;;5077118;28;20499;-82
2024/02/22 00:57:02;;;;;;;94.15;44.50;;;;;;;;;;4998182;28;20434;-83
2024/02/22 00:59:32;;;;;;;95.57;43.80;;;;;;;;;;5080886;28;20390;-79
2024/02/22 01:01:58;;;;;;;94.10;46.45;;;;;;;;;;5074886;28;20029;-79
2024/02/22 01:04:24;;;;;;;91.18;41.75;;;;;;;;;;5012569;28;20476;-79
2024/02/22 01:06:52;;;;;;;91.35;40.47;;;;;;;;;;5011374;28;20033;-82
2024/02/22 01:09:18;;;;;;;80.25;38.00;;;;;;;;;;5080569;28;20112;-82
2024/02/22 01:11:44;;;;;;;105.38;50.63;;;;;;;;;;5080262;28;20503;-82
2024/02/22 01:14:11;;;;;;;94.30;46.88;;;;;;;;;;5080868;28;20028;-82
2024/02/22 01:16:37;;;;;;;90.70;44.50;;;;;;;;;;5011908;28;20494;-80
2024/02/22 01:19:03;;;;;;;92.22;47.10;;;;;;;;;;5012284;28;20424;-81
2024/02/22 01:21:30;;;;;;;100.07;52.40;;;;;;;;;;5077560;28;20055;-78
2024/02/22 01:23:56;;;;;;;98.03;50.65;;;;;;;;;;5001677;28;20440;-80
2024/02/22 01:26:22;;;;;;;88.72;42.00;;;;;;;;;;5080107;28;20163;-80
2024/02/22 01:28:49;;;;;;;71.80;35.95;;;;;;;;;;5079653;28;20026;-78
2024/02/22 01:31:15;;;;;;;70.57;35.42;;;;;;;;;;5078525;28;20038;-79
2024/02/22 01:33:41;;;;;;;65.68;33.25;;;;;;;;;;5076301;28;20034;-80
2024/02/22 01:36:07;;;;;;;60.95;29.13;;;;;;;;;;5077479;28;20022;-79
2024/02/22 01:38:35;;;;;;;92.75;41.58;;;;;;;;;;5074379;28;20026;-79
2024/02/22 01:41:01;;;;;;;85.22;38.22;;;;;;;;;;5012176;28;20064;-81
2024/02/22 01:43:27;;;;;;;86.05;36.60;;;;;;;;;;5080617;28;20030;-81
2024/02/22 01:45:54;;;;;;;96.43;39.58;;;;;;;;;;5011392;28;20035;-81
2024/02/22 01:48:20;;;;;;;86.50;38.67;;;;;;;;;;5012213;28;20026;-81
2024/02/22 01:50:52;;;;;;;66.55;34.05;;;;;;;;;;5011840;28;20038;-78
2024/02/22 01:53:18;;;;;;;75.53;34.08;;;;;;;;;;5003981;28;20052;-78
2024/02/22 01:55:45;;;;;;;66.03;31.98;;;;;;;;;;5079584;28;20025;-81
2024/02/22 01:58:11;;;;;;;65.53;33.45;;;;;;;;;;5079991;28;20021;-78
2024/02/22 02:00:38;;;;;;;84.13;37.25;;;;;;;;;;5079692;28;20395;-78
2024/02/22 02:03:05;;;;;;;71.90;35.95;;;;;;;;;;5010697;28;20062;-78
2024/02/22 02:05:31;;;;;;;67.88;34.60;;;;;;;;;;5077534;28;20113;-78
2024/02/22 02:07:58;;;;;;;69.07;31.75;;;;;;;;;;5009407;28;20510;-77
2024/02/22 02:10:24;;;;;;;79.90;36.53;;;;;;;;;;5075590;28;20034;-78
2024/02/22 02:12:50;;;;;;;78.03;37.13;;;;;;;;;;4993793;28;20091;-80
2024/02/22 02:15:16;;;;;;;74.38;39.13;;;;;;;;;;5078119;28;20042;-80
2024/02/22 02:17:43;;;;;;;76.10;35.72;;;;;;;;;;5011219;28;20025;-78
2024/02/22 02:20:10;;;;;;;56.80;27.42;;;;;;;;;;5079020;28;20487;-78
2024/02/22 02:22:47;;;;;;;49.03;22.67;;;;;;;;;;5010169;28;20046;-79
2024/02/22 02:25:14;;;;;;;33.95;16.08;;;;;;;;;;5011460;28;20030;-80
2024/02/22 02:27:40;;;;;;;38.55;17.50;;;;;;;;;;5063084;28;20076;-80
2024/02/22 02:30:07;;;;;;;33.70;17.45;;;;;;;;;;5076052;28;20030;-80
2024/02/22 02:32:33;;;;;;;24.70;14.27;;;;;;;;;;5078316;28;20034;-80
2024/02/22 02:34:59;;;;;;;28.20;15.77;;;;;;;;;;5010927;28;20055;-80
2024/02/22 02:37:25;;;;;;;31.17;14.50;;;;;;;;;;5078808;28;20030;-81
2024/02/22 02:39:52;;;;;;;34.92;16.88;;;;;;;;;;5008124;28;20488;-79
2024/02/22 02:42:19;;;;;;;33.50;16.83;;;;;;;;;;5007697;28;20022;-79
2024/02/22 02:44:45;;;;;;;28.08;16.08;;;;;;;;;;5010517;28;20026;-79
2024/02/22 02:47:12;;;;;;;29.70;14.60;;;;;;;;;;5010928;28;20022;-79
2024/02/22 02:49:38;;;;;;;36.58;19.30;;;;;;;;;;5078507;28;20042;-81
2024/02/22 02:52:04;;;;;;;35.42;17.80;;;;;;;;;;5009303;28;20026;-80
2024/02/22 02:54:30;;;;;;;31.92;16.17;;;;;;;;;;5079037;28;20030;-81
2024/02/22 02:56:56;;;;;;;28.48;13.80;;;;;;;;;;5011147;28;20108;-80
2024/02/22 02:59:22;;;;;;;22.85;12.70;;;;;;;;;;5011198;28;20033;-81
2024/02/22 03:01:49;;;;;;;28.23;13.55;;;;;;;;;;5077016;28;20017;-78
2024/02/22 03:04:18;;;;;;;29.13;13.48;;;;;;;;;;5010749;28;20033;-80
2024/02/22 03:06:48;;;;;;;26.52;12.68;;;;;;;;;;5078271;28;20025;-80
2024/02/22 03:09:14;;;;;;;26.05;13.38;;;;;;;;;;5078502;28;20120;-82
2024/02/22 03:11:40;;;;;;;29.40;12.80;;;;;;;;;;5008793;28;20022;-82
2024/02/22 03:14:09;;;;;;;21.58;12.85;;;;;;;;;;5078043;28;20155;-81
2024/02/22 03:16:37;;;;;;;25.83;12.98;;;;;;;;;;5078007;28;20578;-82
2024/02/22 03:19:03;;;;;;;19.13;10.27;;;;;;;;;;5009860;28;20024;-78
2024/02/22 03:21:30;;;;;;;21.50;13.57;;;;;;;;;;5077454;28;20026;-81
2024/02/22 03:23:56;;;;;;;22.13;12.90;;;;;;;;;;5077639;28;20079;-81
2024/02/22 03:26:23;;;;;;;21.30;11.60;;;;;;;;;;5010602;28;20030;-78
2024/02/22 03:28:51;;;;;;;27.33;13.07;;;;;;;;;;5010838;28;20027;-81
2024/02/22 03:31:18;;;;;;;25.25;12.45;;;;;;;;;;5009477;28;20018;-79
2024/02/22 03:33:44;;;;;;;28.05;13.57;;;;;;;;;;5008040;28;20083;-82
2024/02/22 03:36:11;;;;;;;39.88;18.00;;;;;;;;;;5077728;28;20018;-81
2024/02/22 03:38:40;;;;;;;47.80;24.83;;;;;;;;;;5077483;28;20044;-80
2024/02/22 03:41:07;;;;;;;44.35;22.58;;;;;;;;;;5077481;28;20433;-78
2024/02/22 03:43:33;;;;;;;47.35;24.98;;;;;;;;;;5076476;28;20057;-78
2024/02/22 03:45:59;;;;;;;34.00;19.27;;;;;;;;;;5077399;28;20022;-78
2024/02/22 03:48:26;;;;;;;32.22;17.08;;;;;;;;;;5009844;28;20030;-80
2024/02/22 03:50:52;;;;;;;35.35;18.10;;;;;;;;;;5076252;28;20030;-79
2024/02/22 03:53:18;;;;;;;36.78;17.98;;;;;;;;;;5003381;28;20030;-78
2024/02/22 03:55:44;;;;;;;19.58;10.23;;;;;;;;;;5077745;28;20105;-80
2024/02/22 03:58:10;;;;;;;21.08;11.60;;;;;;;;;;5077391;28;20030;-81
2024/02/22 04:00:36;;;;;;;13.88;9.57;;;;;;;;;;5077395;28;20074;-82
2024/02/22 04:03:02;;;;;;;17.38;10.60;;;;;;;;;;5008587;28;20531;-79
2024/02/22 04:05:28;;;;;;;19.38;8.70;;;;;;;;;;5077605;28;20107;-80
2024/02/22 04:07:55;;;;;;;16.30;9.27;;;;;;;;;;5009238;28;20468;-79
2024/02/22 04:10:21;;;;;;;24.33;8.88;;;;;;;;;;5009998;28;20094;-79
2024/02/22 04:12:47;;;;;;;16.20;8.05;;;;;;;;;;5009108;28;20022;-80
2024/02/22 04:15:13;;;;;;;14.25;7.70;;;;;;;;;;5077572;28;20065;-79
2024/02/22 04:17:39;;;;;;;12.90;9.07;;;;;;;;;;5076629;28;20038;-81
2024/02/22 04:20:07;;;;;;;12.43;8.93;;;;;;;;;;4990332;28;20026;-81
2024/02/22 04:22:33;;;;;;;27.33;15.45;;;;;;;;;;5072433;28;20037;-80
2024/02/22 04:24:59;;;;;;;43.13;21.45;;;;;;;;;;5010442;28;20025;-82
2024/02/22 04:27:25;;;;;;;44.28;21.98;;;;;;;;;;5008966;28;20034;-82
2024/02/22 04:29:51;;;;;;;46.30;24.83;;;;;;;;;;5076805;28;20049;-78
2024/02/22 04:32:17;;;;;;;45.35;24.17;;;;;;;;;;5007546;28;20036;-79
2024/02/22 04:34:44;;;;;;;49.50;22.67;;;;;;;;;;5081660;28;20022;-79
2024/02/22 04:37:10;;;;;;;54.55;24.70;;;;;;;;;;5080707;28;20029;-80
2024/02/22 04:39:36;;;;;;;49.60;25.17;;;;;;;;;;5081414;28;20407;-81
2024/02/22 04:42:02;;;;;;;46.53;24.63;;;;;;;;;;5080735;28;20037;-81
2024/02/22 04:44:28;;;;;;;33.90;17.80;;;;;;;;;;5011646;28;20022;-81
2024/02/22 04:46:54;;;;;;;18.60;10.80;;;;;;;;;;5080642;28;20116;-81
2024/02/22 04:49:20;;;;;;;19.55;11.13;;;;;;;;;;5081233;28;20487;-78
2024/02/22 04:51:47;;;;;;;16.52;7.90;;;;;;;;;;5011866;28;20022;-80
2024/02/22 04:54:13;;;;;;;12.52;7.95;;;;;;;;;;5074351;28;20395;-79
2024/02/22 04:56:39;;;;;;;12.55;7.75;;;;;;;;;;5005686;28;20096;-80
2024/02/22 04:59:05;;;;;;;12.60;8.75;;;;;;;;;;5080542;28;20061;-80
2024/02/22 05:01:31;;;;;;;27.77;12.57;;;;;;;;;;5089952;28;20487;-80
2024/02/22 05:03:57;;;;;;;43.00;21.00;;;;;;;;;;5080435;28;20022;-80
2024/02/22 05:06:24;;;;;;;41.97;21.13;;;;;;;;;;5012526;28;20070;-79
2024/02/22 05:08:50;;;;;;;47.25;23.08;;;;;;;;;;5080212;28;20068;-80
2024/02/22 05:11:16;;;;;;;40.95;22.75;;;;;;;;;;5012192;28;20525;-80
2024/02/22 05:13:42;;;;;;;47.03;25.65;;;;;;;;;;5011537;28;20022;-80
2024/02/22 05:16:08;;;;;;;43.85;24.50;;;;;;;;;;5062837;28;20030;-80
2024/02/22 05:18:35;;;;;;;51.80;25.23;;;;;;;;;;5080318;28;20078;-80
2024/02/22 05:21:01;;;;;;;42.95;24.55;;;;;;;;;;5079696;28;20048;-80
2024/02/22 05:23:27;;;;;;;33.70;18.80;;;;;;;;;;5076975;28;20018;-81
2024/02/22 05:25:53;;;;;;;39.20;22.23;;;;;;;;;;5084795;28;20437;-79
2024/02/22 05:28:19;;;;;;;48.35;27.95;;;;;;;;;;5012360;28;20054;-81
2024/02/22 05:30:45;;;;;;;45.38;25.00;;;;;;;;;;5079154;28;20126;-81
2024/02/22 05:33:11;;;;;;;42.83;24.55;;;;;;;;;;5076724;28;20075;-81
2024/02/22 05:35:37;;;;;;;48.85;23.52;;;;;;;;;;5012009;28;20029;-81
2024/02/22 05:38:04;;;;;;;34.92;20.50;;;;;;;;;;5079649;28;20018;-80
2024/02/22 05:40:30;;;;;;;29.52;14.88;;;;;;;;;;5011630;28;20046;-81
2024/02/22 05:42:56;;;;;;;41.72;21.80;;;;;;;;;;5010297;28;20395;-80
2024/02/22 05:45:34;;;;;;;45.40;23.10;;;;;;;;;;5079024;28;20029;-80
2024/02/22 05:48:00;;;;;;;39.38;21.65;;;;;;;;;;5079920;28;20109;-81
2024/02/22 05:50:26;;;;;;;58.22;28.98;;;;;;;;;;5079607;28;20038;-77
2024/02/22 05:52:52;;;;;;;63.28;30.77;;;;;;;;;;5079512;28;20049;-80
2024/02/22 05:55:18;;;;;;;44.75;22.58;;;;;;;;;;5078590;28;20050;-80
2024/02/22 05:57:44;;;;;;;38.08;19.30;;;;;;;;;;5079380;28;20057;-80
2024/02/22 06:00:10;;;;;;;30.88;15.82;;;;;;;;;;5079526;28;20033;-80
2024/02/22 06:02:36;;;;;;;29.30;15.55;;;;;;;;;;5079509;28;20038;-80
2024/02/22 06:05:02;;;;;;;31.95;16.92;;;;;;;;;;5077051;28;20029;-79
2024/02/22 06:07:28;;;;;;;35.15;17.40;;;;;;;;;;5061068;28;20030;-78
2024/02/22 06:09:54;;;;;;;26.48;16.08;;;;;;;;;;5009437;28;20064;-80
2024/02/22 06:12:20;;;;;;;23.42;12.95;;;;;;;;;;5079139;28;20030;-81
2024/02/22 06:14:46;;;;;;;20.52;12.60;;;;;;;;;;5078368;28;20030;-80
2024/02/22 06:17:12;;;;;;;19.05;10.68;;;;;;;;;;5011288;28;20026;-80
2024/02/22 06:19:39;;;;;;;16.88;9.73;;;;;;;;;;5011436;28;20026;-80
2024/02/22 06:22:05;;;;;;;22.45;11.63;;;;;;;;;;5075027;28;20050;-80
2024/02/22 06:24:31;;;;;;;17.25;9.30;;;;;;;;;;5078866;28;20056;-80
2024/02/22 06:26:57;;;;;;;18.58;11.15;;;;;;;;;;5078341;28;20018;-79
2024/02/22 06:29:23;;;;;;;15.70;9.65;;;;;;;;;;5078950;28;20022;-79
2024/02/22 06:31:49;;;;;;;17.48;11.07;;;;;;;;;;5078540;28;20026;-80
2024/02/22 06:34:15;;;;;;;19.33;10.15;;;;;;;;;;5078762;28;20732;-80
2024/02/22 06:36:41;;;;;;;17.73;10.57;;;;;;;;;;5010941;28;20022;-81
2024/02/22 06:39:08;;;;;;;18.35;9.90;;;;;;;;;;5078448;28;20018;-81
2024/02/22 06:41:35;;;;;;;16.80;9.90;;;;;;;;;;5011228;28;20022;-79
2024/02/22 06:44:01;;;;;;;20.35;11.73;;;;;;;;;;5010799;28;20418;-81
2024/02/22 06:46:27;;;;;;;23.63;10.05;;;;;;;;;;5078480;28;20030;-79
2024/02/22 06:48:53;;;;;;;18.30;12.18;;;;;;;;;;5010180;28;20041;-78
2024/02/22 06:51:22;;;;;;;17.45;10.23;;;;;;;;;;5010830;28;20091;-79
2024/02/22 06:53:48;;;;;;;16.08;10.52;;;;;;;;;;5076639;28;20053;-80
2024/02/22 06:56:15;;;;;;;26.63;16.63;;;;;;;;;;5001929;28;20025;-79
2024/02/22 06:58:41;;;;;;;28.05;15.05;;;;;;;;;;5009287;28;20041;-79
2024/02/22 07:01:07;;;;;;;30.48;17.35;;;;;;;;;;5010282;28;20065;-79
2024/02/22 07:03:33;;;;;;;29.20;15.40;;;;;;;;;;5076176;28;20113;-79
2024/02/22 07:06:00;;;;;;;28.80;15.75;;;;;;;;;;5011946;28;20037;-80
2024/02/22 07:08:26;;;;;;;30.15;17.13;;;;;;;;;;5075663;28;20014;-81
2024/02/22 07:10:52;;;;;;;30.00;17.85;;;;;;;;;;5075162;28;20073;-82
2024/02/22 07:13:18;;;;;;;87.13;40.40;;;;;;;;;;5004836;28;20018;-81
2024/02/22 07:15:44;;;;;;;81.82;36.80;;;;;;;;;;5070417;28;20038;-79
2024/02/22 07:18:10;;;;;;;35.08;18.52;;;;;;;;;;5007296;28;20528;-80
2024/02/22 07:20:36;;;;;;;46.03;21.35;;;;;;;;;;5007317;28;20480;-80
2024/02/22 07:23:04;;;;;;;68.10;31.00;;;;;;;;;;5091048;28;20117;-80
2024/02/22 07:25:30;;;;;;;67.40;32.80;;;;;;;;;;5003443;28;20033;-81
2024/02/22 07:27:56;;;;;;;139.73;61.78;;;;;;;;;;4992250;28;20026;-80
2024/02/22 07:30:23;;;;;;;176.77;85.25;;;;;;;;;;5068852;28;20495;-80
2024/02/22 07:32:49;;;;;;;68.60;33.00;;;;;;;;;;5075527;28;20026;-81
2024/02/22 07:35:16;;;;;;;70.53;33.88;;;;;;;;;;5078579;28;20036;-79
2024/02/22 07:37:43;;;;;;;47.30;24.17;;;;;;;;;;5072432;28;20087;-78
2024/02/22 07:40:09;;;;;;;53.65;27.67;;;;;;;;;;5072603;28;20840;-78
2024/02/22 07:42:36;;;;;;;73.32;35.50;;;;;;;;;;5086038;28;20020;-77
2024/02/22 07:45:04;;;;;;;87.25;42.97;;;;;;;;;;5081355;28;20020;-77
2024/02/22 07:47:30;;;;;;;90.40;44.47;;;;;;;;;;5087896;28;20030;-77
2024/02/22 07:49:56;;;;;;;111.88;50.88;;;;;;;;;;5087872;28;20032;-78
2024/02/22 07:52:22;;;;;;;156.63;64.65;;;;;;;;;;5088204;28;20084;-78
2024/02/22 07:54:48;;;;;;;362.95;121.25;;;;;;;;;;5090912;28;20032;-78
2024/02/22 07:57:14;;;;;;;108.35;39.85;;;;;;;;;;5091541;28;20051;-76
2024/02/22 07:59:40;;;;;;;98.22;38.92;;;;;;;;;;5081922;28;20031;-79
2024/02/22 08:02:06;;;;;;;199.50;70.00;;;;;;;;;;5081075;28;20032;-77
2024/02/22 08:04:32;;;;;;;157.43;58.83;;;;;;;;;;5081228;28;20039;-79
2024/02/22 08:06:59;;;;;;;64.40;24.83;;;;;;;;;;5086923;28;20473;-77
2024/02/22 08:09:25;;;;;;;73.28;28.92;;;;;;;;;;5092638;28;20024;-78
2024/02/22 08:11:51;;;;;;;35.47;15.80;;;;;;;;;;5090413;28;20026;-77
2024/02/22 08:14:17;;;;;;;14.52;7.97;;;;;;;;;;5086322;28;20498;-77
2024/02/22 08:16:43;;;;;;;13.27;8.93;;;;;;;;;;5084452;28;20020;-77
2024/02/22 08:19:09;;;;;;;14.50;8.52;;;;;;;;;;5086130;28;20141;-78
2024/02/22 08:21:35;;;;;;;26.02;11.20;;;;;;;;;;5090027;28;20035;-77
2024/02/22 08:24:01;;;;;;;74.40;30.55;;;;;;;;;;5087028;28;20481;-77
2024/02/22 08:26:27;;;;;;;87.25;34.90;;;;;;;;;;5079941;28;20097;-77
2024/02/22 08:28:54;;;;;;;41.80;19.52;;;;;;;;;;5069050;28;20028;-78
2024/02/22 08:31:21;;;;;;;46.55;18.90;;;;;;;;;;5078570;28;20044;-78
2024/02/22 08:33:49;;;;;;;32.47;15.60;;;;;;;;;;5082668;28;20043;-78
2024/02/22 08:36:15;;;;;;;31.02;14.23;;;;;;;;;;5079922;28;20032;-78
2024/02/22 08:38:41;;;;;;;20.98;10.43;;;;;;;;;;5069632;28;20645;-78
2024/02/22 08:41:07;;;;;;;34.42;16.17;;;;;;;;;;5085638;28;20112;-77
2024/02/22 08:43:33;;;;;;;39.65;17.25;;;;;;;;;;5084834;28;20482;-80
2024/02/22 08:46:01;;;;;;;32.55;15.40;;;;;;;;;;5089269;28;20036;-78
2024/02/22 08:48:27;;;;;;;18.02;10.68;;;;;;;;;;5087620;28;20040;-79
2024/02/22 08:50:54;;;;;;;16.92;9.32;;;;;;;;;;5084509;28;20115;-79
2024/02/22 08:53:20;;;;;;;14.98;8.90;;;;;;;;;;5073652;28;20041;-79
2024/02/22 08:55:47;;;;;;;11.23;7.03;;;;;;;;;;5089654;28;20473;-79
2024/02/22 08:58:13;;;;;;;10.43;6.55;;;;;;;;;;5085312;28;20044;-78
2024/02/22 09:00:39;;;;;;;13.98;5.88;;;;;;;;;;5079531;28;20093;-78
2024/02/22 09:03:05;;;;;;;12.38;7.60;;;;;;;;;;5085749;28;21585;-78
2024/02/22 09:05:31;;;;;;;19.73;9.68;;;;;;;;;;5088603;28;20496;-78
2024/02/22 09:07:58;;;;;;;10.25;6.43;;;;;;;;;;5080229;28;20467;-78
2024/02/22 09:10:24;;;;;;;11.77;6.15;;;;;;;;;;5087118;28;20043;-79
2024/02/22 09:12:51;;;;;;;10.13;5.60;;;;;;;;;;5084197;28;20029;-78
2024/02/22 09:15:17;;;;;;;8.10;4.93;;;;;;;;;;5090286;28;20024;-78
2024/02/22 09:17:44;;;;;;;6.70;4.07;;;;;;;;;;5083265;28;20048;-78
2024/02/22 09:20:12;;;;;;;8.85;4.97;;;;;;;;;;5088234;28;20504;-79
2024/02/22 09:22:40;;;;;;;9.15;4.28;;;;;;;;;;5090156;28;20025;-78
2024/02/22 09:25:06;;;;;;;6.63;3.70;;;;;;;;;;5086251;28;20111;-78
2024/02/22 09:27:33;;;;;;;5.88;3.92;;;;;;;;;;5092446;28;20032;-77
2024/02/22 09:30:01;;;;;;;6.32;3.67;;;;;;;;;;5088906;28;20036;-78
2024/02/22 09:32:27;;;;;;;7.90;4.40;;;;;;;;;;5088567;28;20054;-78
2024/02/22 09:34:54;;;;;;;7.25;4.00;;;;;;;;;;5089404;28;20023;-78
2024/02/22 09:37:20;;;;;;;7.85;4.80;;;;;;;;;;5092660;28;20067;-79
2024/02/22 09:39:48;;;;;;;6.68;3.67;;;;;;;;;;5092874;28;20044;-78
2024/02/22 09:42:14;;;;;;;6.15;4.25;;;;;;;;;;5080835;28;20028;-78
2024/02/22 09:44:40;;;;;;;6.57;4.10;;;;;;;;;;5086479;28;20058;-80
2024/02/22 09:47:08;;;;;;;5.30;3.63;;;;;;;;;;5092286;28;20066;-80
2024/02/22 09:49:34;;;;;;;6.85;4.95;;;;;;;;;;5093663;28;20020;-80
2024/02/22 09:52:00;;;;;;;5.97;3.90;;;;;;;;;;5092947;28;20050;-78
2024/02/22 09:54:26;;;;;;;4.15;2.70;;;;;;;;;;5091385;28;20496;-80
2024/02/22 09:56:53;;;;;;;3.83;3.05;;;;;;;;;;5094283;28;20058;-80
2024/02/22 09:59:19;;;;;;;8.02;3.80;;;;;;;;;;5089357;28;20061;-78
2024/02/22 10:01:45;;;;;;;5.97;3.65;;;;;;;;;;5094486;28;20134;-80
2024/02/22 10:04:12;;;;;;;8.52;4.57;;;;;;;;;;5092288;28;20039;-78
2024/02/22 10:06:38;;;;;;;7.43;4.03;;;;;;;;;;5090733;28;20028;-75
2024/02/22 10:09:06;;;;;;;7.47;4.47;;;;;;;;;;5089808;28;20074;-79
2024/02/22 10:11:32;;;;;;;4.93;3.75;;;;;;;;;;5092246;28;20056;-79
2024/02/22 10:14:07;;;;;;;8.50;4.35;;;;;;;;;;5091233;28;20027;-78
2024/02/22 10:16:33;;;;;;;12.40;4.40;;;;;;;;;;5092950;28;20029;-79
2024/02/22 10:19:02;;;;;;;5.45;3.08;;;;;;;;;;5097529;28;20028;-79
2024/02/22 10:21:29;;;;;;;34.33;15.13;;;;;;;;;;5083203;28;20103;-76
2024/02/22 10:23:59;;;;;;;12.20;5.32;;;;;;;;;;5093998;28;20020;-75
2024/02/22 10:26:25;;;;;;;5.47;3.50;;;;;;;;;;5092456;28;20024;-78
2024/02/22 10:29:00;;;;;;;8.85;4.55;;;;;;;;;;5092452;28;20030;-79
2024/02/22 10:31:27;;;;;;;6.40;3.80;;;;;;;;;;5091306;28;20374;-79
2024/02/22 10:33:54;;;;;;;9.63;4.63;;;;;;;;;;5078228;28;20037;-75
2024/02/22 10:36:21;;;;;;;7.47;4.45;;;;;;;;;;5076360;28;20088;-78
2024/02/22 10:38:47;;;;;;;12.10;4.85;;;;;;;;;;5085767;28;20111;-75
2024/02/22 10:41:17;;;;;;;12.10;5.97;;;;;;;;;;5009247;28;20042;-76
2024/02/22 10:43:43;;;;;;;9.50;5.18;;;;;;;;;;4998852;28;20088;-79
2024/02/22 10:46:11;;;;;;;7.03;4.57;;;;;;;;;;4997823;28;20026;-77
2024/02/22 10:48:42;;;;;;;8.52;4.85;;;;;;;;;;5073749;28;20171;-79
2024/02/22 10:51:10;;;;;;;5.97;3.80;;;;;;;;;;5078312;28;20038;-77
2024/02/22 10:53:37;;;;;;;8.02;4.18;;;;;;;;;;5010416;28;20053;-80
2024/02/22 10:56:04;;;;;;;7.90;4.18;;;;;;;;;;5001259;28;20019;-77
2024/02/22 10:58:33;;;;;;;7.28;3.90;;;;;;;;;;5075108;28;20099;-76
2024/02/22 11:01:03;;;;;;;8.25;4.53;;;;;;;;;;5065555;28;20065;-80
2024/02/22 11:03:31;;;;;;;6.90;4.03;;;;;;;;;;5007842;28;20415;-77
2024/02/22 11:05:58;;;;;;;15.48;5.32;;;;;;;;;;5072662;28;20044;-77
2024/02/22 11:08:29;;;;;;;8.73;5.10;;;;;;;;;;5007251;28;20131;-80
2024/02/22 11:11:08;;;;;;;7.40;3.97;;;;;;;;;;5073456;28;20404;-80
2024/02/22 11:13:35;;;;;;;5.63;3.20;;;;;;;;;;5006887;28;20026;-77
2024/02/22 11:16:12;;;;;;;4.45;2.97;;;;;;;;;;5070678;28;20030;-77
2024/02/22 11:18:38;;;;;;;4.57;3.47;;;;;;;;;;5062912;28;20056;-77
2024/02/22 11:21:11;;;;;;;6.97;4.50;;;;;;;;;;5010197;28;20042;-77
2024/02/22 11:23:37;;;;;;;6.30;4.22;;;;;;;;;;5007818;28;20116;-77
2024/02/22 11:26:03;;;;;;;8.65;5.60;;;;;;;;;;5075445;28;20482;-80
2024/02/22 11:28:29;;;;;;;9.23;4.88;;;;;;;;;;5010437;28;20033;-77
2024/02/22 11:30:57;;;;;;;5.50;4.00;;;;;;;;;;5007986;28;20047;-77
2024/02/22 11:33:23;;;;;;;6.85;3.60;;;;;;;;;;5077671;28;20113;-79
2024/02/22 11:35:55;;;;;;;9.80;3.70;;;;;;;;;;5009837;28;20102;-77
2024/02/22 11:38:22;;;;;;;6.00;4.30;;;;;;;;;;5077429;28;20037;-80
2024/02/22 11:40:48;;;;;;;7.78;4.18;;;;;;;;;;5008092;28;20380;-77
2024/02/22 11:43:14;;;;;;;5.63;3.53;;;;;;;;;;5073220;28;20026;-77
2024/02/22 11:45:41;;;;;;;14.18;6.30;;;;;;;;;;5076360;28;20117;-77
2024/02/22 11:48:07;;;;;;;11.18;5.95;;;;;;;;;;5077270;28;20022;-80
2024/02/22 11:50:33;;;;;;;13.13;6.57;;;;;;;;;;5077268;28;20030;-79
2024/02/22 11:53:02;;;;;;;7.15;4.18;;;;;;;;;;5077866;28;20420;-77
2024/02/22 11:55:28;;;;;;;10.23;6.80;;;;;;;;;;5009055;28;20026;-79
2024/02/22 11:57:54;;;;;;;14.73;7.60;;;;;;;;;;5009514;28;20041;-77
2024/02/22 12:00:20;;;;;;;23.35;11.07;;;;;;;;;;5009903;28;20108;-80
2024/02/22 12:02:46;;;;;;;21.00;9.40;;;;;;;;;;5077359;28;20444;-79
2024/02/22 12:05:13;;;;;;;21.73;8.35;;;;;;;;;;5077116;28;20045;-79
2024/02/22 12:07:39;;;;;;;10.88;5.85;;;;;;;;;;5009519;28;20154;-80
2024/02/22 12:10:06;;;;;;;19.02;10.40;;;;;;;;;;5005532;28;20083;-80
2024/02/22 12:12:32;;;;;;;11.15;4.97;;;;;;;;;;5000824;28;20491;-81
2024/02/22 12:14:59;;;;;;;9.57;6.05;;;;;;;;;;5001472;28;20055;-80
2024/02/22 12:17:26;;;;;;;12.68;5.60;;;;;;;;;;5068078;28;20030;-81
2024/02/22 12:19:55;;;;;;;16.27;8.52;;;;;;;;;;5000573;28;20075;-81
2024/02/22 12:22:21;;;;;;;26.13;12.20;;;;;;;;;;5076975;28;20037;-82
2024/02/22 12:24:51;;;;;;;27.52;12.55;;;;;;;;;;5075910;28;20031;-82
2024/02/22 12:27:17;;;;;;;20.00;11.98;;;;;;;;;;5061615;28;20033;-82
2024/02/22 12:29:43;;;;;;;30.88;15.63;;;;;;;;;;5070864;28;20026;-79
2024/02/22 12:32:09;;;;;;;12.57;6.68;;;;;;;;;;5004828;28;20026;-79
2024/02/22 12:34:39;;;;;;;10.90;5.43;;;;;;;;;;5072267;28;20149;-78
2024/02/22 12:37:05;;;;;;;7.95;4.20;;;;;;;;;;5008979;28;20365;-79
2024/02/22 12:39:31;;;;;;;8.57;4.45;;;;;;;;;;5009134;28;20121;-78
2024/02/22 12:41:57;;;;;;;9.30;4.10;;;;;;;;;;5076084;28;20054;-77
2024/02/22 12:44:24;;;;;;;8.13;4.57;;;;;;;;;;5078375;28;20034;-85
2024/02/22 12:46:50;;;;;;;25.75;12.55;;;;;;;;;;5074871;28;20034;-84
2024/02/22 12:49:16;;;;;;;7.68;5.03;;;;;;;;;;5009269;28;20126;-84
2024/02/22 12:51:48;;;;;;;22.40;11.68;;;;;;;;;;5071664;28;20026;-83
2024/02/22 12:54:16;;;;;;;26.10;14.88;;;;;;;;;;5067888;28;20018;-84
2024/02/22 12:56:42;;;;;;;10.68;6.30;;;;;;;;;;5003899;28;20064;-85
2024/02/22 12:59:08;;;;;;;24.15;11.55;;;;;;;;;;5079122;28;20018;-78
2024/02/22 13:01:38;;;;;;;12.32;6.78;;;;;;;;;;5012250;28;20026;-77
2024/02/22 13:04:05;;;;;;;10.13;4.55;;;;;;;;;;5074406;28;20130;-78
2024/02/22 13:06:35;;;;;;;5.82;3.50;;;;;;;;;;5078265;28;20026;-77
2024/02/22 13:09:01;;;;;;;7.90;4.03;;;;;;;;;;5007446;28;20512;-78
2024/02/22 13:11:27;;;;;;;8.90;4.45;;;;;;;;;;5074237;28;20045;-77
2024/02/22 13:13:54;;;;;;;9.23;5.03;;;;;;;;;;5068126;28;20071;-76
2024/02/22 13:16:23;;;;;;;8.25;4.10;;;;;;;;;;5078923;28;20038;-81
2024/02/22 13:18:49;;;;;;;6.47;4.03;;;;;;;;;;5010855;28;20022;-81
2024/02/22 13:21:17;;;;;;;9.38;4.30;;;;;;;;;;5078933;28;20087;-81
2024/02/22 13:23:44;;;;;;;7.82;5.65;;;;;;;;;;5012164;28;20033;-81
2024/02/22 13:26:10;;;;;;;7.75;3.92;;;;;;;;;;5079694;28;20117;-82
2024/02/22 13:28:36;;;;;;;7.57;4.13;;;;;;;;;;5080271;28;20053;-77
2024/02/22 13:31:02;;;;;;;10.25;4.60;;;;;;;;;;5093175;28;20033;-77
2024/02/22 13:33:29;;;;;;;5.97;4.38;;;;;;;;;;5018390;28;20509;-82
2024/02/22 13:35:55;;;;;;;11.27;6.05;;;;;;;;;;5069015;28;20025;-82
2024/02/22 13:38:21;;;;;;;5.82;4.38;;;;;;;;;;5011832;28;20429;-77
2024/02/22 13:40:48;;;;;;;13.35;7.47;;;;;;;;;;5092385;28;20081;-81
2024/02/22 13:43:15;;;;;;;15.27;7.95;;;;;;;;;;5009566;28;20034;-83
2024/02/22 13:45:45;;;;;;;16.33;9.27;;;;;;;;;;5063192;28;20476;-82
2024/02/22 13:48:12;;;;;;;8.68;5.03;;;;;;;;;;5075584;28;20053;-82
2024/02/22 13:50:39;;;;;;;8.93;5.38;;;;;;;;;;5009837;28;20042;-82
2024/02/22 13:53:05;;;;;;;8.85;5.53;;;;;;;;;;5081385;28;20387;-82
2024/02/22 13:55:32;;;;;;;10.98;6.25;;;;;;;;;;5074175;28;20212;-82
2024/02/22 13:57:58;;;;;;;7.93;5.63;;;;;;;;;;5002158;28;20022;-78
2024/02/22 14:00:24;;;;;;;10.32;6.00;;;;;;;;;;5073335;28;20092;-77
2024/02/22 14:02:54;;;;;;;11.88;7.30;;;;;;;;;;5004555;28;20029;-79
2024/02/22 14:05:21;;;;;;;12.50;5.90;;;;;;;;;;5069086;28;20041;-78
2024/02/22 14:07:51;;;;;;;10.80;6.57;;;;;;;;;;5076790;28;20026;-78
2024/02/22 14:10:28;;;;;;;12.07;6.22;;;;;;;;;;4996224;28;20061;-78
2024/02/22 14:12:55;;;;;;;10.80;6.70;;;;;;;;;;5073115;28;20038;-78
2024/02/22 14:15:21;;;;;;;8.48;5.78;;;;;;;;;;5064630;28;20515;-80
2024/02/22 14:17:48;;;;;;;8.85;6.65;;;;;;;;;;5075607;28;20033;-79
2024/02/22 14:20:15;;;;;;;10.85;6.75;;;;;;;;;;5063908;28;20050;-78